CheckWX is a tool to help pilots better visualize weather data.  It is not intended as a substitute for an official pre-flight weather briefing.

08:31:50 UTC

LIMF TAF
Turin Airport
Torino, Italy
TAF LIMF 220500Z 2206/2306 VRB05KT 8000 NSC

Feb-22@
06:00 UTC

Feb-22 @ 06:00 UTC

Feb-23@
06:00 UTC

Feb-23 @ 06:00 UTC

TAF LIMF 220500Z 2206/2306 VRB05KT 8000 NSC
Wind
  • Variable at 5 KTS
Cloud Levels
  • No significant clouds